sensor_id;sensor_type;location;lat;lon;timestamp;pressure;altitude;pressure_sealevel;temperature;humidity
38225;BME280;24025;48.138;11.428;2024-01-16T00:01:24;94759.88;;;-2.68;75.14
38225;BME280;24025;48.138;11.428;2024-01-16T00:03:56;94760.94;;;-2.69;76.99
38225;BME280;24025;48.138;11.428;2024-01-16T00:06:28;94771.88;;;-2.90;76.20
38225;BME280;24025;48.138;11.428;2024-01-16T00:09:00;94776.19;;;-2.85;75.67
38225;BME280;24025;48.138;11.428;2024-01-16T00:11:31;94777.56;;;-3.01;75.90
38225;BME280;24025;48.138;11.428;2024-01-16T00:14:03;94765.91;;;-3.04;76.17
38225;BME280;24025;48.138;11.428;2024-01-16T00:16:45;94779.34;;;-3.10;76.61
38225;BME280;24025;48.138;11.428;2024-01-16T00:19:18;94780.72;;;-3.13;77.75
38225;BME280;24025;48.138;11.428;2024-01-16T00:21:50;94774.72;;;-3.14;77.40
38225;BME280;24025;48.138;11.428;2024-01-16T00:24:22;94777.25;;;-3.22;76.90
38225;BME280;24025;48.138;11.428;2024-01-16T00:26:54;94776.84;;;-3.16;77.13
38225;BME280;24025;48.138;11.428;2024-01-16T00:29:26;94776.66;;;-3.19;78.12
38225;BME280;24025;48.138;11.428;2024-01-16T00:31:59;94780.75;;;-3.27;76.06
38225;BME280;24025;48.138;11.428;2024-01-16T00:34:30;94781.63;;;-3.31;76.73
38225;BME280;24025;48.138;11.428;2024-01-16T00:37:02;94785.59;;;-3.34;77.25
38225;BME280;24025;48.138;11.428;2024-01-16T00:39:33;94786.84;;;-3.45;75.86
38225;BME280;24025;48.138;11.428;2024-01-16T00:42:05;94796.31;;;-3.49;76.43
38225;BME280;24025;48.138;11.428;2024-01-16T00:44:37;94798.81;;;-3.44;76.68
38225;BME280;24025;48.138;11.428;2024-01-16T00:47:09;94801.91;;;-3.56;75.02
38225;BME280;24025;48.138;11.428;2024-01-16T00:49:40;94801.81;;;-3.51;75.94
38225;BME280;24025;48.138;11.428;2024-01-16T00:52:12;94801.59;;;-3.54;77.29
38225;BME280;24025;48.138;11.428;2024-01-16T00:54:44;94815.13;;;-3.52;77.21
38225;BME280;24025;48.138;11.428;2024-01-16T00:57:17;94814.38;;;-3.53;76.45
38225;BME280;24025;48.138;11.428;2024-01-16T00:59:50;94811.06;;;-3.58;76.19
38225;BME280;24025;48.138;11.428;2024-01-16T01:02:23;94819.97;;;-3.59;77.68
38225;BME280;24025;48.138;11.428;2024-01-16T01:04:54;94826.13;;;-3.69;76.20
38225;BME280;24025;48.138;11.428;2024-01-16T01:07:26;94824.38;;;-3.74;75.95
38225;BME280;24025;48.138;11.428;2024-01-16T01:09:58;94829.31;;;-3.58;77.64
38225;BME280;24025;48.138;11.428;2024-01-16T01:12:30;94825.72;;;-3.62;76.86
38225;BME280;24025;48.138;11.428;2024-01-16T01:15:02;94833.28;;;-3.61;76.52
38225;BME280;24025;48.138;11.428;2024-01-16T01:17:33;94842.72;;;-3.65;75.02
38225;BME280;24025;48.138;11.428;2024-01-16T01:20:07;94840.69;;;-3.68;76.23
38225;BME280;24025;48.138;11.428;2024-01-16T01:22:39;94840.97;;;-3.56;78.78
38225;BME280;24025;48.138;11.428;2024-01-16T01:25:11;94846.47;;;-3.57;76.91
38225;BME280;24025;48.138;11.428;2024-01-16T01:27:43;94852.28;;;-3.60;77.31
38225;BME280;24025;48.138;11.428;2024-01-16T01:30:15;94856.31;;;-3.54;76.78
38225;BME280;24025;48.138;11.428;2024-01-16T01:32:46;94857.69;;;-3.43;76.46
38225;BME280;24025;48.138;11.428;2024-01-16T01:35:18;94864.25;;;-3.32;76.85
38225;BME280;24025;48.138;11.428;2024-01-16T01:37:53;94869.63;;;-3.28;76.34
38225;BME280;24025;48.138;11.428;2024-01-16T01:40:25;94875.16;;;-3.30;75.97
38225;BME280;24025;48.138;11.428;2024-01-16T01:42:56;94876.59;;;-3.24;76.68
38225;BME280;24025;48.138;11.428;2024-01-16T01:45:28;94872.16;;;-3.23;76.43
38225;BME280;24025;48.138;11.428;2024-01-16T01:48:00;94866.56;;;-3.30;75.83
38225;BME280;24025;48.138;11.428;2024-01-16T01:50:32;94881.53;;;-3.22;76.70
38225;BME280;24025;48.138;11.428;2024-01-16T01:53:04;94879.59;;;-3.17;76.22
38225;BME280;24025;48.138;11.428;2024-01-16T01:55:36;94885.84;;;-3.04;75.53
38225;BME280;24025;48.138;11.428;2024-01-16T01:58:08;94889.69;;;-3.01;74.53
38225;BME280;24025;48.138;11.428;2024-01-16T02:00:40;94888.28;;;-3.07;74.81
38225;BME280;24025;48.138;11.428;2024-01-16T02:03:12;94891.06;;;-3.04;74.78
38225;BME280;24025;48.138;11.428;2024-01-16T02:05:44;94889.25;;;-3.17;74.55
38225;BME280;24025;48.138;11.428;2024-01-16T02:08:16;94887.97;;;-3.06;75.54
38225;BME280;24025;48.138;11.428;2024-01-16T02:10:49;94886.22;;;-2.97;76.07
38225;BME280;24025;48.138;11.428;2024-01-16T02:13:21;94898.72;;;-3.07;75.31
38225;BME280;24025;48.138;11.428;2024-01-16T02:15:55;94892.59;;;-3.03;75.07
38225;BME280;24025;48.138;11.428;2024-01-16T02:18:26;94895.50;;;-3.04;74.59
38225;BME280;24025;48.138;11.428;2024-01-16T02:21:03;94896.28;;;-3.04;73.64
38225;BME280;24025;48.138;11.428;2024-01-16T02:23:37;94883.16;;;-2.99;75.27
38225;BME280;24025;48.138;11.428;2024-01-16T02:26:08;94885.16;;;-2.96;74.81
38225;BME280;24025;48.138;11.428;2024-01-16T02:28:40;94892.13;;;-3.05;73.42
38225;BME280;24025;48.138;11.428;2024-01-16T02:31:13;94893.00;;;-3.09;74.29
38225;BME280;24025;48.138;11.428;2024-01-16T02:33:45;94908.16;;;-3.11;73.60
38225;BME280;24025;48.138;11.428;2024-01-16T02:36:16;94901.19;;;-3.02;75.03
38225;BME280;24025;48.138;11.428;2024-01-16T02:38:48;94906.13;;;-3.01;75.63
38225;BME280;24025;48.138;11.428;2024-01-16T02:41:20;94904.09;;;-3.04;75.49
38225;BME280;24025;48.138;11.428;2024-01-16T02:43:52;94897.34;;;-3.05;74.60
38225;BME280;24025;48.138;11.428;2024-01-16T02:46:23;94900.34;;;-2.98;75.67
38225;BME280;24025;48.138;11.428;2024-01-16T02:48:56;94897.53;;;-3.01;75.48
38225;BME280;24025;48.138;11.428;2024-01-16T02:51:27;94902.66;;;-3.10;75.82
38225;BME280;24025;48.138;11.428;2024-01-16T02:53:59;94898.91;;;-3.18;74.55
38225;BME280;24025;48.138;11.428;2024-01-16T02:56:30;94902.75;;;-3.29;74.74
38225;BME280;24025;48.138;11.428;2024-01-16T02:59:02;94907.97;;;-3.29;75.15
38225;BME280;24025;48.138;11.428;2024-01-16T03:01:34;94908.47;;;-3.27;76.29
38225;BME280;24025;48.138;11.428;2024-01-16T03:04:05;94907.78;;;-3.32;75.17
38225;BME280;24025;48.138;11.428;2024-01-16T03:06:37;94916.44;;;-3.37;75.35
38225;BME280;24025;48.138;11.428;2024-01-16T03:09:09;94916.94;;;-3.49;76.49
38225;BME280;24025;48.138;11.428;2024-01-16T03:11:40;94915.78;;;-3.43;76.04
38225;BME280;24025;48.138;11.428;2024-01-16T03:14:12;94919.44;;;-3.57;74.82
38225;BME280;24025;48.138;11.428;2024-01-16T03:16:45;94918.19;;;-3.60;75.80
38225;BME280;24025;48.138;11.428;2024-01-16T03:19:17;94915.56;;;-3.60;75.36
38225;BME280;24025;48.138;11.428;2024-01-16T03:21:49;94911.63;;;-3.57;75.59
38225;BME280;24025;48.138;11.428;2024-01-16T03:24:20;94908.63;;;-3.51;77.82
38225;BME280;24025;48.138;11.428;2024-01-16T03:26:52;94918.84;;;-3.54;76.49
38225;BME280;24025;48.138;11.428;2024-01-16T03:29:24;94915.88;;;-3.61;76.23
38225;BME280;24025;48.138;11.428;2024-01-16T03:31:56;94918.59;;;-3.53;76.42
38225;BME280;24025;48.138;11.428;2024-01-16T03:34:30;94918.28;;;-3.51;76.52
38225;BME280;24025;48.138;11.428;2024-01-16T03:37:03;94919.72;;;-3.59;76.30
38225;BME280;24025;48.138;11.428;2024-01-16T03:39:34;94915.56;;;-3.60;75.67
38225;BME280;24025;48.138;11.428;2024-01-16T03:42:06;94913.81;;;-3.64;75.62
38225;BME280;24025;48.138;11.428;2024-01-16T03:44:39;94907.72;;;-3.74;77.08
38225;BME280;24025;48.138;11.428;2024-01-16T03:47:10;94910.63;;;-3.75;75.67
38225;BME280;24025;48.138;11.428;2024-01-16T03:49:42;94909.47;;;-3.69;75.91
38225;BME280;24025;48.138;11.428;2024-01-16T03:52:14;94912.63;;;-3.72;75.67
38225;BME280;24025;48.138;11.428;2024-01-16T03:54:46;94906.38;;;-3.71;76.07
38225;BME280;24025;48.138;11.428;2024-01-16T03:57:18;94911.22;;;-3.64;75.56
38225;BME280;24025;48.138;11.428;2024-01-16T03:59:50;94911.63;;;-3.57;76.08
38225;BME280;24025;48.138;11.428;2024-01-16T04:02:21;94917.41;;;-3.47;76.51
38225;BME280;24025;48.138;11.428;2024-01-16T04:04:53;94913.00;;;-3.32;76.83
38225;BME280;24025;48.138;11.428;2024-01-16T04:07:25;94912.03;;;-3.23;75.99
38225;BME280;24025;48.138;11.428;2024-01-16T04:09:58;94917.03;;;-3.13;76.60
38225;BME280;24025;48.138;11.428;2024-01-16T04:12:30;94918.03;;;-3.08;76.63
38225;BME280;24025;48.138;11.428;2024-01-16T04:15:02;94918.97;;;-3.04;75.84
38225;BME280;24025;48.138;11.428;2024-01-16T04:17:33;94916.75;;;-2.97;76.90
38225;BME280;24025;48.138;11.428;2024-01-16T04:20:05;94920.63;;;-3.08;75.11
38225;BME280;24025;48.138;11.428;2024-01-16T04:22:38;94922.81;;;-3.02;75.52
38225;BME280;24025;48.138;11.428;2024-01-16T04:25:10;94923.13;;;-3.03;75.57
38225;BME280;24025;48.138;11.428;2024-01-16T04:27:41;94924.38;;;-3.01;76.09
38225;BME280;24025;48.138;11.428;2024-01-16T04:30:13;94930.06;;;-3.13;75.48
38225;BME280;24025;48.138;11.428;2024-01-16T04:32:45;94916.09;;;-3.17;74.51
38225;BME280;24025;48.138;11.428;2024-01-16T04:35:17;94919.06;;;-3.23;75.21
38225;BME280;24025;48.138;11.428;2024-01-16T04:37:48;94918.91;;;-3.27;74.82
38225;BME280;24025;48.138;11.428;2024-01-16T04:40:20;94915.22;;;-3.26;76.14
38225;BME280;24025;48.138;11.428;2024-01-16T04:42:52;94910.47;;;-3.24;76.37
38225;BME280;24025;48.138;11.428;2024-01-16T04:45:23;94909.13;;;-3.35;76.42
38225;BME280;24025;48.138;11.428;2024-01-16T04:47:55;94907.31;;;-3.34;75.61
38225;BME280;24025;48.138;11.428;2024-01-16T04:50:27;94906.31;;;-3.38;75.02
38225;BME280;24025;48.138;11.428;2024-01-16T04:53:03;94897.16;;;-3.36;74.77
38225;BME280;24025;48.138;11.428;2024-01-16T04:55:35;94903.59;;;-3.47;74.71
38225;BME280;24025;48.138;11.428;2024-01-16T04:58:07;94901.97;;;-3.57;75.72
38225;BME280;24025;48.138;11.428;2024-01-16T05:00:39;94902.38;;;-3.50;75.78
38225;BME280;24025;48.138;11.428;2024-01-16T05:03:10;94902.25;;;-3.45;76.38
38225;BME280;24025;48.138;11.428;2024-01-16T05:05:42;94907.28;;;-3.48;76.06
38225;BME280;24025;48.138;11.428;2024-01-16T05:08:13;94897.75;;;-3.53;74.91
38225;BME280;24025;48.138;11.428;2024-01-16T05:10:45;94903.25;;;-3.40;76.75
38225;BME280;24025;48.138;11.428;2024-01-16T05:13:17;94902.00;;;-3.43;76.42
38225;BME280;24025;48.138;11.428;2024-01-16T05:15:49;94903.13;;;-3.49;76.23
38225;BME280;24025;48.138;11.428;2024-01-16T05:18:20;94897.53;;;-3.43;76.38
38225;BME280;24025;48.138;11.428;2024-01-16T05:20:52;94893.28;;;-3.38;77.20
38225;BME280;24025;48.138;11.428;2024-01-16T05:23:26;94898.88;;;-3.45;76.78
38225;BME280;24025;48.138;11.428;2024-01-16T05:25:58;94898.63;;;-3.44;76.75
38225;BME280;24025;48.138;11.428;2024-01-16T05:28:30;94899.66;;;-3.45;77.13
38225;BME280;24025;48.138;11.428;2024-01-16T05:31:02;94900.72;;;-3.46;76.36
38225;BME280;24025;48.138;11.428;2024-01-16T05:33:34;94902.16;;;-3.39;76.76
38225;BME280;24025;48.138;11.428;2024-01-16T05:36:06;94900.56;;;-3.35;76.92
38225;BME280;24025;48.138;11.428;2024-01-16T05:38:38;94898.97;;;-3.36;77.13
38225;BME280;24025;48.138;11.428;2024-01-16T05:41:10;94905.06;;;-3.41;77.23
38225;BME280;24025;48.138;11.428;2024-01-16T05:43:42;94902.66;;;-3.51;75.22
38225;BME280;24025;48.138;11.428;2024-01-16T05:46:13;94895.69;;;-3.69;75.67
38225;BME280;24025;48.138;11.428;2024-01-16T05:48:45;94896.84;;;-3.62;76.58
38225;BME280;24025;48.138;11.428;2024-01-16T05:51:17;94905.72;;;-3.63;77.27
38225;BME280;24025;48.138;11.428;2024-01-16T05:53:49;94901.38;;;-3.67;76.82
38225;BME280;24025;48.138;11.428;2024-01-16T05:56:21;94897.59;;;-3.75;76.34
38225;BME280;24025;48.138;11.428;2024-01-16T05:58:53;94904.56;;;-3.71;77.25
38225;BME280;24025;48.138;11.428;2024-01-16T06:01:24;94901.28;;;-3.62;77.95
38225;BME280;24025;48.138;11.428;2024-01-16T06:03:56;94898.66;;;-3.76;76.68
38225;BME280;24025;48.138;11.428;2024-01-16T06:06:28;94888.06;;;-3.80;76.66
38225;BME280;24025;48.138;11.428;2024-01-16T06:09:00;94893.28;;;-3.66;77.35
38225;BME280;24025;48.138;11.428;2024-01-16T06:11:36;94896.84;;;-3.62;77.47
38225;BME280;24025;48.138;11.428;2024-01-16T06:14:09;94888.25;;;-3.62;77.66
38225;BME280;24025;48.138;11.428;2024-01-16T06:16:43;94889.72;;;-3.56;77.18
38225;BME280;24025;48.138;11.428;2024-01-16T06:19:14;94891.66;;;-3.48;77.48
38225;BME280;24025;48.138;11.428;2024-01-16T06:21:47;94887.97;;;-3.47;77.33
38225;BME280;24025;48.138;11.428;2024-01-16T06:24:19;94882.75;;;-3.47;76.43
38225;BME280;24025;48.138;11.428;2024-01-16T06:26:51;94880.16;;;-3.47;76.71
38225;BME280;24025;48.138;11.428;2024-01-16T06:29:23;94884.13;;;-3.50;76.85
38225;BME280;24025;48.138;11.428;2024-01-16T06:32:05;94886.06;;;-3.42;77.26
38225;BME280;24025;48.138;11.428;2024-01-16T06:34:37;94889.16;;;-3.39;76.26
38225;BME280;24025;48.138;11.428;2024-01-16T06:37:09;94894.34;;;-3.39;76.06
38225;BME280;24025;48.138;11.428;2024-01-16T06:39:40;94884.22;;;-3.41;76.21
38225;BME280;24025;48.138;11.428;2024-01-16T06:42:12;94890.97;;;-3.40;76.12
38225;BME280;24025;48.138;11.428;2024-01-16T06:44:44;94894.94;;;-3.43;76.59
38225;BME280;24025;48.138;11.428;2024-01-16T06:47:15;94894.25;;;-3.48;75.40
38225;BME280;24025;48.138;11.428;2024-01-16T06:49:47;94895.78;;;-3.47;76.94
38225;BME280;24025;48.138;11.428;2024-01-16T06:52:19;94896.09;;;-3.49;76.65
38225;BME280;24025;48.138;11.428;2024-01-16T06:54:51;94895.41;;;-3.40;76.00
38225;BME280;24025;48.138;11.428;2024-01-16T06:57:22;94891.44;;;-3.38;76.24
38225;BME280;24025;48.138;11.428;2024-01-16T06:59:54;94898.03;;;-3.40;76.47
38225;BME280;24025;48.138;11.428;2024-01-16T07:02:26;94893.28;;;-3.38;76.87
38225;BME280;24025;48.138;11.428;2024-01-16T07:04:57;94894.53;;;-3.36;77.14
38225;BME280;24025;48.138;11.428;2024-01-16T07:07:31;94895.91;;;-3.38;76.94
38225;BME280;24025;48.138;11.428;2024-01-16T07:10:03;94891.56;;;-3.29;76.69
38225;BME280;24025;48.138;11.428;2024-01-16T07:12:34;94898.53;;;-3.25;76.52
38225;BME280;24025;48.138;11.428;2024-01-16T07:15:06;94903.44;;;-3.23;76.95
38225;BME280;24025;48.138;11.428;2024-01-16T07:17:38;94889.53;;;-3.19;76.77
38225;BME280;24025;48.138;11.428;2024-01-16T07:20:10;94895.25;;;-3.17;75.83
38225;BME280;24025;48.138;11.428;2024-01-16T07:22:42;94896.78;;;-3.16;75.50
38225;BME280;24025;48.138;11.428;2024-01-16T07:25:14;94895.50;;;-3.04;76.65
38225;BME280;24025;48.138;11.428;2024-01-16T07:27:46;94905.34;;;-3.01;75.90
38225;BME280;24025;48.138;11.428;2024-01-16T07:30:21;94902.34;;;-2.95;75.81
38225;BME280;24025;48.138;11.428;2024-01-16T07:32:52;94895.38;;;-2.86;76.04
38225;BME280;24025;48.138;11.428;2024-01-16T07:35:26;94908.03;;;-2.79;75.40
38225;BME280;24025;48.138;11.428;2024-01-16T07:37:57;94913.03;;;-2.69;75.80
38225;BME280;24025;48.138;11.428;2024-01-16T07:40:32;94902.78;;;-2.65;76.05
38225;BME280;24025;48.138;11.428;2024-01-16T07:43:04;94912.81;;;-2.59;75.07
38225;BME280;24025;48.138;11.428;2024-01-16T07:45:35;94912.81;;;-2.59;75.15
38225;BME280;24025;48.138;11.428;2024-01-16T07:48:07;94915.03;;;-2.52;74.54
38225;BME280;24025;48.138;11.428;2024-01-16T07:50:40;94912.91;;;-2.50;74.69
38225;BME280;24025;48.138;11.428;2024-01-16T07:53:11;94912.31;;;-2.47;74.10
38225;BME280;24025;48.138;11.428;2024-01-16T07:55:43;94905.50;;;-2.34;73.87
38225;BME280;24025;48.138;11.428;2024-01-16T07:58:15;94911.88;;;-2.26;73.51
38225;BME280;24025;48.138;11.428;2024-01-16T08:00:46;94900.53;;;-2.22;73.81
38225;BME280;24025;48.138;11.428;2024-01-16T08:03:18;94910.91;;;-2.31;72.32
38225;BME280;24025;48.138;11.428;2024-01-16T08:05:50;94906.00;;;-2.10;73.14
38225;BME280;24025;48.138;11.428;2024-01-16T08:08:21;94908.97;;;-2.03;73.69
38225;BME280;24025;48.138;11.428;2024-01-16T08:10:53;94896.44;;;-1.92;73.70
38225;BME280;24025;48.138;11.428;2024-01-16T08:13:25;94902.59;;;-1.88;73.22
38225;BME280;24025;48.138;11.428;2024-01-16T08:15:56;94903.72;;;-1.80;72.65
38225;BME280;24025;48.138;11.428;2024-01-16T08:18:28;94903.13;;;-1.77;72.54
38225;BME280;24025;48.138;11.428;2024-01-16T08:21:00;94904.59;;;-1.62;72.23
38225;BME280;24025;48.138;11.428;2024-01-16T08:23:31;94904.81;;;-1.50;71.81
38225;BME280;24025;48.138;11.428;2024-01-16T08:26:04;94910.50;;;-1.48;72.17
38225;BME280;24025;48.138;11.428;2024-01-16T08:28:36;94910.06;;;-1.42;71.24
38225;BME280;24025;48.138;11.428;2024-01-16T08:31:07;94911.94;;;-1.33;70.76
38225;BME280;24025;48.138;11.428;2024-01-16T08:33:39;94910.13;;;-1.24;71.11
38225;BME280;24025;48.138;11.428;2024-01-16T08:36:18;94910.91;;;-1.24;70.85
38225;BME280;24025;48.138;11.428;2024-01-16T08:38:49;94903.59;;;-1.13;71.04
38225;BME280;24025;48.138;11.428;2024-01-16T08:41:21;94910.06;;;-1.02;71.19
38225;BME280;24025;48.138;11.428;2024-01-16T08:43:53;94904.41;;;-0.95;70.68
38225;BME280;24025;48.138;11.428;2024-01-16T08:46:25;94909.16;;;-0.89;69.98
38225;BME280;24025;48.138;11.428;2024-01-16T08:48:57;94902.59;;;-0.77;70.42
38225;BME280;24025;48.138;11.428;2024-01-16T08:51:29;94892.91;;;-0.68;70.16
38225;BME280;24025;48.138;11.428;2024-01-16T08:54:00;94895.22;;;-0.67;69.43
38225;BME280;24025;48.138;11.428;2024-01-16T08:56:32;94891.41;;;-0.52;69.57
38225;BME280;24025;48.138;11.428;2024-01-16T08:59:04;94884.75;;;-0.67;67.26
38225;BME280;24025;48.138;11.428;2024-01-16T09:01:35;94883.22;;;-0.42;69.39
38225;BME280;24025;48.138;11.428;2024-01-16T09:04:07;94872.31;;;-0.35;68.91
38225;BME280;24025;48.138;11.428;2024-01-16T09:06:39;94874.13;;;-0.27;67.92
38225;BME280;24025;48.138;11.428;2024-01-16T09:09:11;94878.91;;;-0.20;68.18
38225;BME280;24025;48.138;11.428;2024-01-16T09:11:43;94874.75;;;-0.13;68.19
38225;BME280;24025;48.138;11.428;2024-01-16T09:14:15;94879.22;;;-0.05;67.23
38225;BME280;24025;48.138;11.428;2024-01-16T09:16:47;94877.03;;;0.06;66.93
38225;BME280;24025;48.138;11.428;2024-01-16T09:19:19;94871.94;;;0.10;66.92
38225;BME280;24025;48.138;11.428;2024-01-16T09:21:51;94864.88;;;0.02;65.54
38225;BME280;24025;48.138;11.428;2024-01-16T09:24:22;94865.00;;;0.14;65.49
38225;BME280;24025;48.138;11.428;2024-01-16T09:26:54;94863.25;;;0.26;65.46
38225;BME280;24025;48.138;11.428;2024-01-16T09:29:26;94869.84;;;0.41;64.93
38225;BME280;24025;48.138;11.428;2024-01-16T09:31:58;94865.03;;;0.52;65.08
38225;BME280;24025;48.138;11.428;2024-01-16T09:34:30;94866.09;;;0.60;65.18
38225;BME280;24025;48.138;11.428;2024-01-16T09:37:02;94865.59;;;0.66;64.07
38225;BME280;24025;48.138;11.428;2024-01-16T09:39:35;94868.41;;;0.61;64.39
38225;BME280;24025;48.138;11.428;2024-01-16T09:42:09;94870.41;;;0.64;63.72
38225;BME280;24025;48.138;11.428;2024-01-16T09:44:41;94872.63;;;0.83;63.32
38225;BME280;24025;48.138;11.428;2024-01-16T09:47:13;94868.66;;;0.77;62.45
38225;BME280;24025;48.138;11.428;2024-01-16T09:49:46;94866.22;;;0.72;62.38
38225;BME280;24025;48.138;11.428;2024-01-16T09:52:17;94866.97;;;0.25;62.08
38225;BME280;24025;48.138;11.428;2024-01-16T09:54:49;94863.75;;;0.67;63.71
38225;BME280;24025;48.138;11.428;2024-01-16T09:57:25;94865.94;;;0.65;64.25
38225;BME280;24025;48.138;11.428;2024-01-16T09:59:57;94868.56;;;0.65;63.01
38225;BME280;24025;48.138;11.428;2024-01-16T10:02:34;94858.75;;;0.82;62.97
38225;BME280;24025;48.138;11.428;2024-01-16T10:05:07;94855.13;;;0.96;62.85
38225;BME280;24025;48.138;11.428;2024-01-16T10:07:42;94854.53;;;0.90;62.73
38225;BME280;24025;48.138;11.428;2024-01-16T10:10:16;94849.66;;;1.09;62.41
38225;BME280;24025;48.138;11.428;2024-01-16T10:12:57;94850.91;;;1.03;60.86
38225;BME280;24025;48.138;11.428;2024-01-16T10:15:29;94857.47;;;1.18;62.54
38225;BME280;24025;48.138;11.428;2024-01-16T10:18:01;94863.31;;;1.24;60.34
38225;BME280;24025;48.138;11.428;2024-01-16T10:20:33;94863.38;;;1.36;61.76
38225;BME280;24025;48.138;11.428;2024-01-16T10:23:06;94851.13;;;1.40;62.62
38225;BME280;24025;48.138;11.428;2024-01-16T10:25:37;94848.78;;;1.47;62.59
38225;BME280;24025;48.138;11.428;2024-01-16T10:28:09;94846.97;;;1.39;61.74
38225;BME280;24025;48.138;11.428;2024-01-16T10:30:42;94846.72;;;1.53;61.99
38225;BME280;24025;48.138;11.428;2024-01-16T10:33:15;94838.28;;;1.47;62.18
38225;BME280;24025;48.138;11.428;2024-01-16T10:35:49;94837.88;;;1.36;63.92
38225;BME280;24025;48.138;11.428;2024-01-16T10:38:21;94829.44;;;1.52;64.50
38225;BME280;24025;48.138;11.428;2024-01-16T10:41:13;94829.88;;;1.12;62.03
38225;BME280;24025;48.138;11.428;2024-01-16T10:43:45;94820.25;;;1.58;64.90
38225;BME280;24025;48.138;11.428;2024-01-16T10:46:17;94818.09;;;1.60;64.03
38225;BME280;24025;48.138;11.428;2024-01-16T10:49:00;94822.41;;;1.77;64.13
38225;BME280;24025;48.138;11.428;2024-01-16T10:51:32;94818.09;;;1.93;64.51
38225;BME280;24025;48.138;11.428;2024-01-16T10:54:04;94820.94;;;1.88;63.54
38225;BME280;24025;48.138;11.428;2024-01-16T10:56:45;94816.81;;;1.99;64.03
38225;BME280;24025;48.138;11.428;2024-01-16T10:59:34;94817.72;;;2.15;63.72
38225;BME280;24025;48.138;11.428;2024-01-16T11:02:12;94821.34;;;2.23;63.32
38225;BME280;24025;48.138;11.428;2024-01-16T11:04:50;94817.50;;;2.20;61.71
38225;BME280;24025;48.138;11.428;2024-01-16T11:07:24;94815.44;;;2.26;63.57
38225;BME280;24025;48.138;11.428;2024-01-16T11:09:58;94812.03;;;2.38;63.30
38225;BME280;24025;48.138;11.428;2024-01-16T11:12:30;94813.03;;;2.33;61.28
38225;BME280;24025;48.138;11.428;2024-01-16T11:15:03;94812.47;;;2.27;59.65
38225;BME280;24025;48.138;11.428;2024-01-16T11:17:40;94817.22;;;1.89;58.72
38225;BME280;24025;48.138;11.428;2024-01-16T11:20:15;94800.69;;;2.01;60.86
38225;BME280;24025;48.138;11.428;2024-01-16T11:23:07;94802.81;;;2.07;61.33
38225;BME280;24025;48.138;11.428;2024-01-16T11:25:39;94799.09;;;2.20;61.79
38225;BME280;24025;48.138;11.428;2024-01-16T11:28:13;94794.63;;;2.21;61.58
38225;BME280;24025;48.138;11.428;2024-01-16T11:30:45;94790.56;;;2.23;62.50
38225;BME280;24025;48.138;11.428;2024-01-16T11:36:04;94798.34;;;2.44;60.57
38225;BME280;24025;48.138;11.428;2024-01-16T11:38:36;94792.00;;;2.21;59.89
38225;BME280;24025;48.138;11.428;2024-01-16T11:41:08;94785.44;;;2.39;61.16
38225;BME280;24025;48.138;11.428;2024-01-16T11:43:39;94789.50;;;2.49;59.06
38225;BME280;24025;48.138;11.428;2024-01-16T11:46:11;94780.63;;;2.66;61.42
38225;BME280;24025;48.138;11.428;2024-01-16T11:49:01;94772.03;;;2.81;58.78
38225;BME280;24025;48.138;11.428;2024-01-16T11:51:40;94775.09;;;2.95;59.07
38225;BME280;24025;48.138;11.428;2024-01-16T11:54:13;94778.16;;;2.97;59.61
38225;BME280;24025;48.138;11.428;2024-01-16T11:59:58;94775.22;;;2.62;57.99
38225;BME280;24025;48.138;11.428;2024-01-16T12:02:53;94782.69;;;2.36;56.50
38225;BME280;24025;48.138;11.428;2024-01-16T12:05:25;94768.09;;;2.38;57.99
38225;BME280;24025;48.138;11.428;2024-01-16T12:07:58;94754.84;;;2.47;59.33
38225;BME280;24025;48.138;11.428;2024-01-16T12:10:29;94753.00;;;2.47;58.46
38225;BME280;24025;48.138;11.428;2024-01-16T12:13:01;94739.59;;;2.52;58.20
38225;BME280;24025;48.138;11.428;2024-01-16T12:15:36;94733.47;;;2.48;57.07
38225;BME280;24025;48.138;11.428;2024-01-16T12:18:08;94728.19;;;2.73;58.34
38225;BME280;24025;48.138;11.428;2024-01-16T12:20:57;94726.19;;;2.82;56.21
38225;BME280;24025;48.138;11.428;2024-01-16T12:23:29;94721.25;;;2.80;55.66
38225;BME280;24025;48.138;11.428;2024-01-16T12:26:01;94709.66;;;2.69;56.41
38225;BME280;24025;48.138;11.428;2024-01-16T12:28:35;94714.06;;;2.53;54.61
38225;BME280;24025;48.138;11.428;2024-01-16T12:31:06;94706.94;;;2.66;55.35
38225;BME280;24025;48.138;11.428;2024-01-16T12:33:38;94704.72;;;2.68;55.73
38225;BME280;24025;48.138;11.428;2024-01-16T12:36:15;94700.66;;;2.70;57.14
38225;BME280;24025;48.138;11.428;2024-01-16T12:38:54;94690.69;;;2.64;55.30
38225;BME280;24025;48.138;11.428;2024-01-16T12:41:47;94694.53;;;2.66;53.32
38225;BME280;24025;48.138;11.428;2024-01-16T12:44:19;94689.69;;;2.68;53.56
38225;BME280;24025;48.138;11.428;2024-01-16T12:46:55;94687.84;;;2.69;55.36
38225;BME280;24025;48.138;11.428;2024-01-16T12:49:40;94692.78;;;2.58;54.02
38225;BME280;24025;48.138;11.428;2024-01-16T12:52:20;94685.97;;;2.69;56.70
38225;BME280;24025;48.138;11.428;2024-01-16T12:55:00;94687.19;;;2.60;53.73
38225;BME280;24025;48.138;11.428;2024-01-16T12:57:39;94686.94;;;2.65;54.56
38225;BME280;24025;48.138;11.428;2024-01-16T13:00:22;94682.69;;;2.60;54.06
38225;BME280;24025;48.138;11.428;2024-01-16T13:02:54;94686.00;;;2.57;56.08
38225;BME280;24025;48.138;11.428;2024-01-16T13:05:29;94684.44;;;2.56;53.39
38225;BME280;24025;48.138;11.428;2024-01-16T13:08:04;94679.84;;;2.65;54.91
38225;BME280;24025;48.138;11.428;2024-01-16T13:10:36;94677.47;;;2.48;54.71
38225;BME280;24025;48.138;11.428;2024-01-16T13:13:15;94674.16;;;2.51;55.07
38225;BME280;24025;48.138;11.428;2024-01-16T13:15:48;94669.44;;;2.57;55.87
38225;BME280;24025;48.138;11.428;2024-01-16T13:18:23;94673.28;;;2.47;53.03
38225;BME280;24025;48.138;11.428;2024-01-16T13:20:56;94664.66;;;2.10;51.46
38225;BME280;24025;48.138;11.428;2024-01-16T13:23:28;94648.56;;;2.23;54.88
38225;BME280;24025;48.138;11.428;2024-01-16T13:26:00;94649.53;;;2.31;53.96
38225;BME280;24025;48.138;11.428;2024-01-16T13:28:34;94646.56;;;2.33;53.95